Time;durP1;ratioP1;P1;durP2;ratioP2;P2;SDS_P1;SDS_P2;PMS_P1;PMS_P2;Temp;Humidity;BMP_temperature;BMP_pressure;BME280_temperature;BME280_humidity;BME280_pressure;Samples;Min_cycle;Max_cycle;Signal;HPM_P1;HPM_P2
2022/01/08 00:00:42;;;;;;;10.40;6.10;;;;;;;-1.98;58.83;101562.80;117441;1186;23435;-62
2022/01/08 00:03:10;;;;;;;12.60;6.30;;;;;;;-2.01;58.66;101561.59;117479;1185;22925;-53
2022/01/08 00:05:38;;;;;;;11.00;6.90;;;;;;;-2.04;58.77;101564.72;117353;1185;21862;-52
2022/01/08 00:08:08;;;;;;;8.80;5.60;;;;;;;-2.06;58.68;101564.05;117488;1182;23478;-62
2022/01/08 00:10:36;;;;;;;11.00;5.70;;;;;;;-2.07;58.76;101567.77;117336;1185;22077;-64
2022/01/08 00:13:05;;;;;;;12.10;6.80;;;;;;;-2.09;58.85;101567.82;117399;1186;23464;-62
2022/01/08 00:15:36;;;;;;;11.10;5.90;;;;;;;-2.15;58.85;101569.76;117393;1183;21854;-62
2022/01/08 00:18:04;;;;;;;9.80;6.00;;;;;;;-2.18;58.75;101574.69;117354;1185;21852;-52
2022/01/08 00:20:33;;;;;;;8.40;5.80;;;;;;;-2.21;58.78;101568.19;117474;1188;23461;-52
2022/01/08 00:23:11;;;;;;;13.20;6.20;;;;;;;-2.21;58.90;101567.83;117405;1182;23471;-52
2022/01/08 00:25:39;;;;;;;13.10;6.30;;;;;;;-2.23;58.80;101566.69;117438;1186;22055;-52
2022/01/08 00:28:07;;;;;;;9.80;6.00;;;;;;;-2.23;58.78;101563.61;117474;1183;23454;-55
2022/01/08 00:30:35;;;;;;;11.40;6.20;;;;;;;-2.23;58.80;101564.80;117400;1182;22002;-62
2022/01/08 00:33:03;;;;;;;10.90;6.60;;;;;;;-2.24;58.98;101563.73;117444;1185;21943;-53
2022/01/08 00:35:33;;;;;;;9.50;5.40;;;;;;;-2.24;58.84;101558.91;117430;1185;22973;-62
2022/01/08 00:38:01;;;;;;;10.20;5.60;;;;;;;-2.25;58.89;101560.74;117437;1183;22921;-62
2022/01/08 00:40:31;;;;;;;10.10;5.80;;;;;;;-2.26;58.92;101567.23;117382;1185;23360;-53
2022/01/08 00:42:59;;;;;;;11.10;6.20;;;;;;;-2.26;58.81;101563.92;117491;1183;21854;-62
2022/01/08 00:45:28;;;;;;;10.30;5.90;;;;;;;-2.28;58.89;101559.86;117431;1186;21855;-53
2022/01/08 00:47:56;;;;;;;10.60;6.00;;;;;;;-2.30;58.86;101560.75;117349;1185;21873;-53
2022/01/08 00:50:24;;;;;;;11.20;6.20;;;;;;;-2.31;58.88;101560.20;117384;1185;21884;-52
2022/01/08 00:52:52;;;;;;;11.00;6.20;;;;;;;-2.31;58.97;101555.55;117408;1185;23471;-62
2022/01/08 00:55:20;;;;;;;10.20;6.40;;;;;;;-2.28;58.91;101553.32;117347;1185;21854;-52
2022/01/08 00:57:49;;;;;;;10.40;6.00;;;;;;;-2.26;58.83;101551.59;117448;1186;23439;-62
2022/01/08 01:00:17;;;;;;;11.20;6.20;;;;;;;-2.28;58.92;101551.80;117366;1185;23468;-62
2022/01/08 01:02:45;;;;;;;12.00;6.80;;;;;;;-2.28;58.93;101554.19;117425;1183;21849;-53
2022/01/08 01:05:14;;;;;;;10.30;6.10;;;;;;;-2.28;58.92;101550.09;117388;1185;21862;-62
2022/01/08 01:07:45;;;;;;;9.60;5.80;;;;;;;-2.27;59.04;101549.77;117384;1182;21857;-62
2022/01/08 01:10:13;;;;;;;9.40;5.80;;;;;;;-2.27;59.01;101551.67;117398;1185;21864;-53
2022/01/08 01:12:42;;;;;;;11.70;6.10;;;;;;;-2.27;59.03;101549.44;117398;1182;22921;-62
2022/01/08 01:15:13;;;;;;;10.10;6.00;;;;;;;-2.26;59.03;101541.06;117526;1182;21851;-53
2022/01/08 01:17:42;;;;;;;10.90;6.30;;;;;;;-2.25;59.00;101535.09;117404;1185;21863;-62
2022/01/08 01:20:12;;;;;;;9.10;5.60;;;;;;;-2.24;59.09;101533.45;117423;1185;22810;-62
2022/01/08 01:25:16;;;;;;;10.20;6.40;;;;;;;-2.25;59.07;101523.62;117403;1182;23464;-63
2022/01/08 01:27:57;;;;;;;9.40;6.10;;;;;;;-2.25;59.09;101517.25;117365;1185;23475;-55
2022/01/08 01:41:56;;;;;;;9.60;5.70;;;;;;;-2.15;59.13;101512.46;117387;1185;23471;-52
2022/01/08 01:47:12;;;;;;;8.80;5.30;;;;;;;-2.11;59.10;101507.19;117454;1184;23483;-62
2022/01/08 01:49:42;;;;;;;9.70;6.00;;;;;;;-2.11;59.22;101505.27;117426;1185;23628;-53
2022/01/08 01:52:12;;;;;;;11.10;6.60;;;;;;;-2.11;59.15;101501.54;117451;1186;21851;-53
2022/01/08 01:54:41;;;;;;;12.90;7.10;;;;;;;-2.11;59.17;101499.81;117326;1176;21860;-62
2022/01/08 01:57:12;;;;;;;11.30;6.60;;;;;;;-2.11;59.24;101500.14;117466;1185;21998;-62
2022/01/08 01:59:41;;;;;;;11.00;6.70;;;;;;;-2.13;59.13;101503.97;117400;1185;21854;-53
2022/01/08 02:02:09;;;;;;;10.00;6.40;;;;;;;-2.14;59.14;101501.84;117456;1183;21860;-62
2022/01/08 02:04:38;;;;;;;12.00;7.10;;;;;;;-2.16;59.08;101500.88;117330;1184;23456;-52
2022/01/08 02:07:07;;;;;;;11.10;5.90;;;;;;;-2.17;59.11;101498.06;117368;1185;23560;-62
2022/01/08 02:09:37;;;;;;;11.60;6.30;;;;;;;-2.19;59.11;101497.80;117476;1182;21818;-53
2022/01/08 02:12:17;;;;;;;;;;;;;;;-2.20;59.17;101492.38;117441;1186;22908;-62
2022/01/08 02:14:45;;;;;;;8.60;5.40;;;;;;;-2.21;59.11;101490.95;117397;1182;21892;-53
2022/01/08 02:17:14;;;;;;;11.00;5.80;;;;;;;-2.22;59.17;101491.77;117394;1182;21852;-63
2022/01/08 02:19:42;;;;;;;9.50;6.10;;;;;;;-2.24;59.30;101489.43;117434;1182;21855;-52
2022/01/08 02:22:15;;;;;;;10.40;5.90;;;;;;;-2.25;59.01;101490.90;117403;1185;23467;-63
2022/01/08 02:24:44;;;;;;;10.60;6.00;;;;;;;-2.29;59.04;101486.92;117330;1185;23487;-63
2022/01/08 02:27:13;;;;;;;8.90;5.30;;;;;;;-2.31;59.06;101485.77;117446;1186;24216;-53
2022/01/08 02:29:42;;;;;;;10.40;6.00;;;;;;;-2.32;59.11;101486.38;117410;1182;22655;-62
2022/01/08 02:32:15;;;;;;;10.30;6.20;;;;;;;-2.33;59.29;101485.47;117438;1185;23445;-53
2022/01/08 02:34:44;;;;;;;9.20;6.00;;;;;;;-2.33;59.19;101479.10;117469;1186;22925;-63
2022/01/08 02:37:18;;;;;;;10.00;5.70;;;;;;;-2.32;59.18;101473.84;117321;1185;21852;-62
2022/01/08 02:39:48;;;;;;;10.50;5.40;;;;;;;-2.28;59.12;101471.12;117369;1183;22922;-62
2022/01/08 02:42:19;;;;;;;9.60;5.30;;;;;;;-2.24;59.42;101469.29;117367;1185;23451;-62
2022/01/08 02:44:48;;;;;;;9.20;5.40;;;;;;;-2.20;59.33;101466.77;117391;1185;23576;-53
2022/01/08 02:47:20;;;;;;;10.40;5.50;;;;;;;-2.16;59.47;101460.80;117456;1186;21855;-61
2022/01/08 02:49:52;;;;;;;10.90;5.10;;;;;;;-2.11;59.45;101460.58;117442;1186;22641;-52
2022/01/08 02:52:22;;;;;;;9.00;5.10;;;;;;;-2.04;59.38;101461.48;117432;1182;23084;-62
2022/01/08 02:54:50;;;;;;;11.30;5.30;;;;;;;-2.01;59.53;101462.69;117372;1182;23470;-61
2022/01/08 02:57:19;;;;;;;8.50;5.40;;;;;;;-1.96;59.62;101456.79;117411;1185;23572;-51
2022/01/08 02:59:47;;;;;;;9.50;5.70;;;;;;;-1.89;59.51;101452.48;117427;1182;21854;-61
2022/01/08 03:02:15;;;;;;;9.30;5.50;;;;;;;-1.84;59.46;101453.49;117395;1185;21851;-61
2022/01/08 03:04:45;;;;;;;8.60;5.00;;;;;;;-1.79;59.64;101452.20;117463;1182;21858;-50
2022/01/08 03:07:15;;;;;;;9.00;5.60;;;;;;;-1.74;59.71;101448.85;117334;1185;23647;-62
2022/01/08 03:09:44;;;;;;;10.70;5.70;;;;;;;-1.68;59.74;101453.12;117466;1183;22698;-61
2022/01/08 03:12:25;;;;;;;7.90;5.00;;;;;;;-1.64;59.65;101459.91;117392;1182;24092;-62
2022/01/08 03:14:55;;;;;;;7.80;4.60;;;;;;;-1.59;59.56;101460.15;117442;1186;23714;-61
2022/01/08 03:17:23;;;;;;;8.60;5.10;;;;;;;-1.53;59.50;101457.21;117433;1188;22644;-61
2022/01/08 03:19:54;;;;;;;;;;;;;;;-1.50;59.51;101453.26;117416;1185;21835;-61
2022/01/08 03:22:23;;;;;;;10.10;4.70;;;;;;;-1.46;59.43;101446.88;117428;1186;23227;-61
2022/01/08 03:24:51;;;;;;;9.90;5.90;;;;;;;-1.43;59.51;101447.75;117360;1185;23475;-50
2022/01/08 03:27:19;;;;;;;10.40;4.50;;;;;;;-1.39;59.76;101447.77;117404;1185;21855;-61
2022/01/08 03:29:47;;;;;;;9.20;5.20;;;;;;;-1.36;59.68;101449.16;117423;1185;21895;-52
2022/01/08 03:32:15;;;;;;;9.00;4.70;;;;;;;-1.34;59.55;101445.68;117406;1185;21914;-51
2022/01/08 03:34:43;;;;;;;10.30;4.90;;;;;;;-1.31;59.42;101444.77;117418;1185;21950;-52
2022/01/08 03:37:12;;;;;;;8.70;4.90;;;;;;;-1.29;59.68;101444.19;117446;1185;23448;-61
2022/01/08 03:39:41;;;;;;;8.60;4.70;;;;;;;-1.26;59.50;101447.95;117449;1182;21855;-52
2022/01/08 03:42:09;;;;;;;8.50;5.10;;;;;;;-1.25;59.58;101448.73;117342;1183;21845;-52
2022/01/08 03:44:38;;;;;;;10.50;6.00;;;;;;;-1.23;59.60;101451.09;117545;1183;23643;-61
2022/01/08 03:49:55;;;;;;;9.80;5.10;;;;;;;-1.19;59.60;101456.25;117339;1182;23503;-61
2022/01/08 03:52:23;;;;;;;6.70;3.90;;;;;;;-1.17;59.47;101456.52;117441;1186;21903;-53
2022/01/08 03:54:51;;;;;;;9.90;5.40;;;;;;;-1.15;59.66;101454.25;117370;1183;23439;-62
2022/01/08 03:57:19;;;;;;;9.70;5.10;;;;;;;-1.09;59.35;101454.21;117455;1183;24173;-53
2022/01/08 03:59:48;;;;;;;8.40;5.20;;;;;;;-1.08;59.54;101456.67;117409;1188;21854;-62
2022/01/08 04:02:16;;;;;;;8.10;4.60;;;;;;;-1.07;59.27;101461.02;117370;1186;22316;-62
2022/01/08 04:04:48;;;;;;;9.10;4.80;;;;;;;-1.07;59.39;101460.34;117378;1185;23468;-62
2022/01/08 04:07:16;;;;;;;8.70;5.00;;;;;;;-1.09;59.28;101459.90;117399;1185;22924;-53
2022/01/08 04:09:45;;;;;;;8.80;5.20;;;;;;;-1.12;59.13;101458.18;117377;1185;23471;-62
2022/01/08 04:12:19;;;;;;;8.80;5.00;;;;;;;-1.17;59.35;101456.55;117449;1183;21854;-56
2022/01/08 04:15:02;;;;;;;7.90;4.80;;;;;;;-1.18;59.46;101459.92;117530;1185;21877;-61
2022/01/08 04:17:30;;;;;;;8.00;4.30;;;;;;;-1.19;59.25;101460.20;117351;1185;21896;-53
2022/01/08 04:19:59;;;;;;;7.20;4.80;;;;;;;-1.21;59.22;101458.26;117334;1183;23509;-62
2022/01/08 04:22:29;;;;;;;7.70;4.00;;;;;;;-1.22;59.43;101458.02;117450;1185;22835;-61
2022/01/08 04:24:57;;;;;;;8.20;4.60;;;;;;;-1.22;59.34;101455.75;117365;1183;23471;-62
2022/01/08 04:27:27;;;;;;;10.00;4.90;;;;;;;-1.23;59.37;101457.75;117387;1185;24012;-53
2022/01/08 04:29:55;;;;;;;13.40;4.70;;;;;;;-1.24;59.39;101456.16;117374;1176;21865;-53
2022/01/08 04:32:23;;;;;;;9.90;4.90;;;;;;;-1.25;59.50;101451.15;117369;1182;21854;-53
2022/01/08 04:34:51;;;;;;;8.30;4.40;;;;;;;-1.26;59.67;101450.59;117396;1182;23500;-62
2022/01/08 04:37:19;;;;;;;8.60;4.50;;;;;;;-1.26;59.62;101448.85;117474;1185;21861;-62
2022/01/08 04:39:48;;;;;;;11.30;4.70;;;;;;;-1.24;59.46;101449.45;117367;1184;23475;-53
2022/01/08 04:42:16;;;;;;;10.80;5.10;;;;;;;-1.22;59.44;101450.45;117436;1189;21865;-53
2022/01/08 04:44:44;;;;;;;8.60;5.20;;;;;;;-1.20;59.49;101453.63;117451;1183;24166;-53
2022/01/08 04:47:13;;;;;;;9.50;4.80;;;;;;;-1.14;59.43;101457.89;117482;1185;22806;-58
2022/01/08 04:49:41;;;;;;;9.20;4.60;;;;;;;-1.11;59.51;101454.96;117399;1185;23448;-53
2022/01/08 04:52:10;;;;;;;10.10;4.90;;;;;;;-1.07;59.36;101458.61;117412;1183;22307;-62
2022/01/08 04:54:38;;;;;;;9.00;4.90;;;;;;;-1.05;59.68;101452.19;117456;1186;23526;-62
2022/01/08 04:57:07;;;;;;;13.00;5.30;;;;;;;-1.04;59.43;101453.09;117381;1185;22886;-53
2022/01/08 04:59:35;;;;;;;11.50;5.30;;;;;;;-1.05;59.55;101454.05;117418;1185;23446;-62
2022/01/08 05:02:04;;;;;;;8.00;4.70;;;;;;;-1.04;59.41;101454.80;117377;1185;23468;-55
2022/01/08 05:04:32;;;;;;;7.80;4.90;;;;;;;-1.04;59.46;101456.55;117292;1183;22616;-62
2022/01/08 05:07:00;;;;;;;10.40;5.20;;;;;;;-1.06;59.54;101456.77;117363;1189;21837;-52
2022/01/08 05:09:30;;;;;;;10.10;5.60;;;;;;;-1.06;59.58;101456.41;117366;1183;23436;-49
2022/01/08 05:11:59;;;;;;;11.80;5.20;;;;;;;-1.04;59.66;101454.13;117311;1185;22619;-50
2022/01/08 05:14:27;;;;;;;16.00;6.10;;;;;;;-0.93;59.91;101456.76;117451;1183;22942;-64
2022/01/08 05:17:01;;;;;;;14.00;6.10;;;;;;;-0.85;60.00;101462.34;117426;1188;21896;-65
2022/01/08 05:19:41;;;;;;;12.40;5.30;;;;;;;-0.82;59.98;101460.91;117354;1185;23628;-65
2022/01/08 05:22:18;;;;;;;12.20;5.20;;;;;;;-0.79;59.90;101464.55;117418;1185;23471;-65
2022/01/08 05:24:46;;;;;;;17.20;5.10;;;;;;;-0.76;59.82;101464.86;117432;1186;21854;-65
2022/01/08 05:27:17;;;;;;;11.70;5.20;;;;;;;-0.74;59.72;101459.95;117399;1183;23446;-65
2022/01/08 05:29:46;;;;;;;14.20;4.90;;;;;;;-0.72;59.92;101457.79;117368;1184;22925;-65
2022/01/08 05:32:16;;;;;;;11.00;4.80;;;;;;;-0.72;59.87;101460.76;117416;1186;22924;-65
2022/01/08 05:34:46;;;;;;;54.20;9.10;;;;;;;-0.72;59.83;101454.39;117325;1182;21870;-51
2022/01/08 05:37:15;;;;;;;46.20;7.20;;;;;;;-0.71;59.78;101454.91;117552;1180;22942;-53
2022/01/08 05:39:44;;;;;;;31.80;5.70;;;;;;;-0.72;59.67;101454.74;117329;1185;21857;-66
2022/01/08 05:42:12;;;;;;;94.70;12.00;;;;;;;-0.72;59.85;101459.21;117422;1182;23471;-65
2022/01/08 05:44:40;;;;;;;34.70;8.30;;;;;;;-0.71;59.89;101457.17;117408;1182;23450;-65
2022/01/08 05:47:09;;;;;;;24.40;6.60;;;;;;;-0.70;59.78;101462.73;117395;1185;23536;-65
2022/01/08 05:49:38;;;;;;;19.80;5.30;;;;;;;-0.71;59.93;101462.02;117415;1185;21855;-66
2022/01/08 05:52:07;;;;;;;18.40;6.90;;;;;;;-0.70;59.83;101460.68;117346;1185;21855;-54
2022/01/08 05:54:35;;;;;;;11.70;5.40;;;;;;;-0.66;59.95;101455.54;117429;1182;21986;-63
2022/01/08 05:57:04;;;;;;;19.90;5.50;;;;;;;-0.64;59.86;101456.33;117442;1184;21861;-63
2022/01/08 05:59:33;;;;;;;14.50;5.60;;;;;;;-0.63;59.97;101449.84;117369;1185;21940;-62
2022/01/08 06:02:01;;;;;;;15.70;6.60;;;;;;;-0.60;59.96;101444.63;117359;1185;21855;-63
2022/01/08 06:04:30;;;;;;;13.80;7.40;;;;;;;-0.58;59.85;101442.32;117370;1183;23445;-61
2022/01/08 06:06:58;;;;;;;17.70;6.20;;;;;;;-0.54;59.95;101443.89;117392;1185;23461;-53
2022/01/08 06:09:26;;;;;;;14.50;7.00;;;;;;;-0.51;60.12;101435.80;117417;1185;21892;-53
2022/01/08 06:12:11;;;;;;;12.30;6.80;;;;;;;-0.45;59.82;101428.66;117304;1185;23496;-53
2022/01/08 06:14:39;;;;;;;12.30;6.80;;;;;;;-0.38;59.89;101426.89;117274;1182;22642;-54
2022/01/08 06:17:08;;;;;;;20.30;8.30;;;;;;;-0.31;60.13;101426.39;117310;1183;21904;-64
2022/01/08 06:19:37;;;;;;;22.80;7.10;;;;;;;-0.21;59.96;101427.39;117352;1185;21989;-54
2022/01/08 06:22:05;;;;;;;14.40;7.10;;;;;;;-0.12;60.28;101424.38;117480;1185;23448;-54
2022/01/08 06:24:33;;;;;;;19.50;8.10;;;;;;;-0.02;60.23;101423.81;117413;1182;23448;-55
2022/01/08 06:27:02;;;;;;;17.00;8.90;;;;;;;0.12;60.24;101423.27;117328;1185;21830;-54
2022/01/08 06:29:31;;;;;;;16.80;8.20;;;;;;;0.28;60.40;101416.40;117379;1185;21855;-54
2022/01/08 06:31:59;;;;;;;18.50;8.20;;;;;;;0.44;60.76;101411.61;117332;1185;23555;-55
2022/01/08 06:34:28;;;;;;;17.50;8.20;;;;;;;0.62;60.99;101403.96;117430;1185;23458;-53
2022/01/08 06:36:56;;;;;;;15.00;8.70;;;;;;;0.80;60.70;101404.73;117357;1182;23451;-64
2022/01/08 06:39:25;;;;;;;19.50;10.70;;;;;;;0.96;60.66;101405.92;117417;1185;21854;-55
2022/01/08 06:41:53;;;;;;;37.20;16.30;;;;;;;1.12;60.69;101405.23;117352;1182;22823;-55
2022/01/08 06:44:21;;;;;;;22.60;12.40;;;;;;;1.26;60.81;101405.13;117357;1185;21997;-66
2022/01/08 06:46:50;;;;;;;32.50;12.60;;;;;;;1.36;60.52;101404.50;117392;1182;23475;-66
2022/01/08 06:49:18;;;;;;;34.70;14.00;;;;;;;1.41;60.48;101401.27;117242;1185;23475;-66
2022/01/08 06:51:46;;;;;;;26.50;12.80;;;;;;;1.46;60.62;101401.29;117356;1185;23538;-55
2022/01/08 06:54:14;;;;;;;23.60;10.40;;;;;;;1.49;60.46;101402.11;117318;1185;21856;-66
2022/01/08 06:56:43;;;;;;;23.90;11.40;;;;;;;1.54;60.57;101400.57;117385;1183;23579;-56
2022/01/08 06:59:11;;;;;;;22.10;11.40;;;;;;;1.58;60.67;101394.35;117393;1184;21855;-65
2022/01/08 07:01:39;;;;;;;25.80;11.50;;;;;;;1.63;60.56;101395.93;117402;1184;22303;-55
2022/01/08 07:04:07;;;;;;;21.40;14.60;;;;;;;1.70;60.57;101393.95;117362;1185;24163;-65
2022/01/08 07:06:35;;;;;;;23.00;11.80;;;;;;;1.77;60.64;101399.60;117382;1185;23445;-65
2022/01/08 07:09:06;;;;;;;20.10;10.40;;;;;;;1.86;60.76;101397.36;117477;1182;23462;-55
2022/01/08 07:11:34;;;;;;;;;;;;;;;1.93;60.58;101396.42;117389;1185;24276;-55
2022/01/08 07:14:02;;;;;;;27.50;10.50;;;;;;;1.99;60.56;101395.27;117413;1183;21906;-66
2022/01/08 07:16:32;;;;;;;16.30;9.90;;;;;;;2.07;60.64;101392.80;117424;1182;23595;-66
2022/01/08 07:19:00;;;;;;;13.90;8.70;;;;;;;2.15;60.78;101393.09;117437;1182;24737;-53
2022/01/08 07:21:29;;;;;;;19.10;10.20;;;;;;;2.22;60.68;101392.70;117416;1186;22921;-67
2022/01/08 07:23:57;;;;;;;21.40;11.40;;;;;;;2.30;60.71;101389.36;117386;1186;21854;-54
2022/01/08 07:26:25;;;;;;;14.70;10.00;;;;;;;2.38;60.77;101384.45;117364;1183;21861;-54
2022/01/08 07:28:53;;;;;;;16.50;10.50;;;;;;;2.45;60.75;101385.41;117402;1186;21984;-62
2022/01/08 07:31:22;;;;;;;19.60;11.20;;;;;;;2.53;60.81;101384.65;117395;1182;23484;-54
2022/01/08 07:33:50;;;;;;;17.50;9.70;;;;;;;2.60;60.86;101389.06;117443;1184;22891;-55
2022/01/08 07:36:23;;;;;;;13.70;8.80;;;;;;;2.69;60.83;101386.42;117314;1183;23448;-54
2022/01/08 07:38:52;;;;;;;15.10;8.30;;;;;;;2.78;60.90;101390.58;117461;1186;23461;-54
2022/01/08 07:41:20;;;;;;;17.20;10.70;;;;;;;2.85;60.88;101388.90;117357;1186;21937;-67
2022/01/08 07:43:48;;;;;;;17.30;10.30;;;;;;;2.93;60.94;101388.66;117438;1185;23715;-55
2022/01/08 07:46:16;;;;;;;16.20;11.30;;;;;;;3.02;60.96;101387.79;117421;1188;21862;-66
2022/01/08 07:48:45;;;;;;;17.10;10.50;;;;;;;3.11;60.85;101387.91;117373;1185;23471;-67
2022/01/08 07:51:13;;;;;;;19.50;10.50;;;;;;;3.19;60.90;101387.66;117368;1183;21855;-55
2022/01/08 07:53:42;;;;;;;16.90;9.40;;;;;;;3.23;60.98;101382.79;117347;1185;23442;-66
2022/01/08 07:56:12;;;;;;;16.20;10.40;;;;;;;3.29;60.99;101386.95;117384;1185;23455;-53
2022/01/08 07:58:40;;;;;;;15.10;9.20;;;;;;;3.35;60.84;101384.73;117481;1186;22063;-67
2022/01/08 08:01:09;;;;;;;14.30;10.00;;;;;;;3.43;60.97;101388.12;117433;1186;21853;-66
2022/01/08 08:03:37;;;;;;;14.60;8.70;;;;;;;3.50;60.94;101393.38;117486;1185;23707;-55
2022/01/08 08:06:12;;;;;;;11.80;8.60;;;;;;;3.72;60.87;101391.11;117379;1182;23550;-55
2022/01/08 08:08:40;;;;;;;17.30;9.80;;;;;;;3.71;60.90;101388.16;117390;1183;22915;-66
2022/01/08 08:11:09;;;;;;;15.90;10.00;;;;;;;3.79;61.14;101384.73;117354;1185;23554;-54
2022/01/08 08:13:38;;;;;;;16.20;10.10;;;;;;;3.87;61.16;101378.77;117705;1185;21858;-66
2022/01/08 08:16:07;;;;;;;14.90;9.80;;;;;;;3.96;61.15;101370.02;117378;1185;21851;-55
2022/01/08 08:18:35;;;;;;;14.80;9.60;;;;;;;4.05;61.25;101365.42;117460;1186;23535;-55
2022/01/08 08:21:04;;;;;;;13.80;9.30;;;;;;;4.11;61.12;101358.67;117503;1186;24708;-55
2022/01/08 08:23:33;;;;;;;17.70;10.60;;;;;;;4.16;61.12;101355.67;117102;1185;23070;-67
2022/01/08 08:26:03;;;;;;;19.20;9.40;;;;;;;4.21;61.29;101354.77;117054;1188;22638;-67
2022/01/08 08:28:32;;;;;;;16.90;10.40;;;;;;;4.31;61.21;101352.78;118556;1183;21858;-54
2022/01/08 08:31:00;;;;;;;14.80;9.70;;;;;;;4.43;61.36;101344.27;117342;1182;23584;-55
2022/01/08 08:33:29;;;;;;;16.10;10.50;;;;;;;4.58;61.60;101334.44;117379;1186;24229;-56
2022/01/08 08:35:57;;;;;;;16.10;10.10;;;;;;;4.77;61.67;101328.68;117404;1186;21865;-56
2022/01/08 08:38:26;;;;;;;15.00;10.30;;;;;;;4.95;61.86;101324.11;117404;1176;22896;-56
2022/01/08 08:40:54;;;;;;;17.00;10.20;;;;;;;5.16;61.80;101319.59;117386;1186;24001;-68
2022/01/08 08:43:23;;;;;;;16.80;9.70;;;;;;;5.38;61.63;101319.95;117325;1184;22074;-55
2022/01/08 08:45:51;;;;;;;16.20;9.40;;;;;;;5.58;61.84;101319.20;117959;1182;23560;-67
2022/01/08 08:48:19;;;;;;;18.00;9.80;;;;;;;5.77;61.88;101316.52;117948;1182;22651;-67
2022/01/08 08:50:47;;;;;;;14.20;9.20;;;;;;;5.93;62.01;101312.84;117411;1182;22619;-55
2022/01/08 08:53:16;;;;;;;12.40;8.40;;;;;;;6.07;61.97;101299.06;117360;1183;23525;-56
2022/01/08 08:55:45;;;;;;;11.10;6.90;;;;;;;6.17;61.70;101295.42;117414;1182;24159;-56
2022/01/08 08:58:14;;;;;;;8.90;6.20;;;;;;;6.24;61.36;101292.27;117380;1182;22954;-56
2022/01/08 09:00:43;;;;;;;11.50;5.10;;;;;;;6.27;61.69;101289.36;117362;1182;22825;-69
2022/01/08 09:03:12;;;;;;;7.60;5.20;;;;;;;6.32;61.61;101288.23;117376;1186;22379;-70
2022/01/08 09:05:41;;;;;;;11.20;5.00;;;;;;;6.36;61.60;101281.35;117680;1185;21856;-69
2022/01/08 09:08:10;;;;;;;10.60;5.10;;;;;;;6.43;61.36;101283.40;117391;1189;23948;-70
2022/01/08 09:10:38;;;;;;;7.70;4.90;;;;;;;6.48;61.61;101276.68;117394;1183;21886;-56
2022/01/08 09:13:07;;;;;;;6.40;4.40;;;;;;;6.53;61.38;101269.11;117314;1185;23530;-56
2022/01/08 09:15:40;;;;;;;9.30;4.60;;;;;;;6.54;61.52;101262.86;117413;1186;24159;-57
2022/01/08 09:18:09;;;;;;;8.30;4.50;;;;;;;6.58;61.16;101260.84;117429;1186;22921;-56
2022/01/08 09:20:37;;;;;;;6.80;4.60;;;;;;;6.62;61.55;101256.38;117392;1185;22921;-67
2022/01/08 09:23:06;;;;;;;6.90;4.40;;;;;;;6.65;61.33;101251.36;117344;1185;22653;-68
2022/01/08 09:25:34;;;;;;;6.10;3.90;;;;;;;6.72;61.33;101241.89;117349;1183;23621;-70
2022/01/08 09:28:03;;;;;;;6.90;4.60;;;;;;;6.71;61.39;101238.22;117263;1185;21893;-56
2022/01/08 09:30:31;;;;;;;8.90;4.40;;;;;;;6.69;61.61;101232.24;119375;1183;22446;-68
2022/01/08 09:32:59;;;;;;;8.80;4.40;;;;;;;6.70;61.33;101230.35;119474;1184;21767;-69
2022/01/08 09:35:28;;;;;;;6.30;3.70;;;;;;;6.73;61.39;101224.81;119437;1185;21787;-54
2022/01/08 09:37:56;;;;;;;7.20;4.70;;;;;;;6.77;61.47;101224.36;119478;1185;21815;-68
2022/01/08 09:40:24;;;;;;;10.30;5.70;;;;;;;6.75;61.61;101217.86;119479;1184;22222;-54
2022/01/08 09:42:52;;;;;;;10.50;4.60;;;;;;;6.71;61.20;101213.79;119448;1184;21764;-54
2022/01/08 09:45:20;;;;;;;11.50;6.90;;;;;;;6.67;61.18;101209.71;119483;1185;21832;-64
2022/01/08 09:47:48;;;;;;;12.30;6.60;;;;;;;6.62;61.03;101207.54;119407;1184;21844;-55
2022/01/08 09:50:16;;;;;;;21.40;8.90;;;;;;;6.57;61.17;101206.06;119438;1183;21820;-64
2022/01/08 09:52:44;;;;;;;11.40;6.00;;;;;;;6.51;61.13;101203.16;118576;1185;22988;-63
2022/01/08 09:55:13;;;;;;;14.90;6.30;;;;;;;6.43;61.11;101201.27;117223;1185;21854;-63
2022/01/08 09:57:41;;;;;;;9.70;5.30;;;;;;;6.38;60.92;101199.98;117395;1186;23017;-63
2022/01/08 10:00:12;;;;;;;7.50;4.90;;;;;;;6.34;60.86;101196.41;119396;1183;22167;-64
2022/01/08 10:02:40;;;;;;;8.20;4.90;;;;;;;6.31;61.04;101199.84;119370;1184;22236;-55
2022/01/08 10:05:09;;;;;;;12.10;6.90;;;;;;;6.28;60.71;101197.52;119257;1185;22171;-64
2022/01/08 10:07:38;;;;;;;9.90;5.30;;;;;;;6.24;61.02;101194.48;119177;1185;21832;-64
2022/01/08 10:10:17;;;;;;;10.70;5.60;;;;;;;6.23;60.92;101193.95;119453;1185;21768;-62
2022/01/08 10:12:56;;;;;;;8.40;4.90;;;;;;;6.24;61.06;101191.35;119439;1185;21819;-64
2022/01/08 10:18:27;;;;;;;14.40;6.40;;;;;;;6.24;61.24;101185.77;119401;1184;21775;-64
2022/01/08 10:20:56;;;;;;;11.20;4.70;;;;;;;6.29;61.12;101179.92;119406;1185;21784;-56
2022/01/08 10:23:26;;;;;;;43.80;29.70;;;;;;;6.32;60.88;101175.64;119416;1182;21792;-55
2022/01/08 10:26:08;;;;;;;36.10;23.50;;;;;;;6.33;60.95;101166.06;119475;1184;21777;-64
2022/01/08 10:28:40;;;;;;;15.50;9.90;;;;;;;6.37;61.35;101165.10;119258;1185;21830;-63
2022/01/08 10:31:22;;;;;;;12.40;8.00;;;;;;;6.37;61.18;101161.79;119433;1184;21821;-64
2022/01/08 10:34:02;;;;;;;12.50;6.40;;;;;;;6.36;61.01;101156.71;119461;1184;21781;-63
2022/01/08 10:37:05;;;;;;;16.50;10.20;;;;;;;6.39;61.08;101146.81;119406;1183;21818;-63
2022/01/08 10:39:36;;;;;;;10.90;7.00;;;;;;;6.54;61.48;101133.65;116764;1189;24241;-56
2022/01/08 10:42:14;;;;;;;11.40;6.30;;;;;;;6.64;61.57;101127.00;116771;1189;23565;-55
2022/01/08 10:44:46;;;;;;;8.90;4.70;;;;;;;6.68;61.17;101127.42;116783;1189;21863;-63
2022/01/08 10:47:21;;;;;;;9.40;5.60;;;;;;;6.69;61.45;101128.65;116751;1189;23561;-57
2022/01/08 10:50:00;;;;;;;8.80;4.70;;;;;;;6.66;61.25;101128.77;116799;1186;21865;-63
2022/01/08 10:52:39;;;;;;;11.20;6.10;;;;;;;6.65;61.50;101127.19;116756;1189;21855;-63
2022/01/08 10:55:07;;;;;;;13.70;6.30;;;;;;;6.68;61.45;101120.09;116765;1190;23582;-63
2022/01/08 10:57:40;;;;;;;9.20;5.60;;;;;;;6.76;61.37;101122.31;116767;1188;23483;-56
2022/01/08 11:00:13;;;;;;;12.70;5.80;;;;;;;6.77;61.55;101118.66;116766;1189;21859;-64
2022/01/08 11:02:43;;;;;;;9.00;4.80;;;;;;;6.78;61.28;101114.84;116749;1186;22840;-56
2022/01/08 11:05:11;;;;;;;10.50;5.20;;;;;;;6.80;61.40;101113.11;116703;1191;23552;-56
2022/01/08 11:07:41;;;;;;;8.60;5.90;;;;;;;6.82;61.43;101110.89;118783;1189;21940;-64
2022/01/08 11:10:16;;;;;;;8.20;5.20;;;;;;;6.92;61.46;101110.85;117432;1189;21875;-64
2022/01/08 11:12:46;;;;;;;7.90;4.90;;;;;;;6.94;61.04;101107.23;116751;1189;22193;-64
2022/01/08 11:17:56;;;;;;;8.50;3.70;;;;;;;6.89;61.31;101104.34;117378;1182;23532;-56
2022/01/08 11:20:45;;;;;;;6.50;3.80;;;;;;;6.77;60.90;101098.60;117391;1182;23456;-56
2022/01/08 11:23:14;;;;;;;7.30;4.20;;;;;;;6.69;61.17;101094.80;117378;1182;23596;-63
2022/01/08 11:25:44;;;;;;;7.50;4.10;;;;;;;6.57;60.87;101093.06;117373;1185;23628;-54
2022/01/08 11:28:13;;;;;;;8.50;3.80;;;;;;;6.51;61.38;101090.19;117398;1182;21845;-70
2022/01/08 11:30:51;;;;;;;7.00;3.80;;;;;;;6.47;61.18;101084.00;117203;1182;21842;-69
2022/01/08 11:33:26;;;;;;;11.40;4.30;;;;;;;6.41;61.26;101083.75;119448;1184;22244;-55
2022/01/08 11:35:55;;;;;;;8.40;5.20;;;;;;;6.38;61.28;101087.17;119465;1185;21769;-68
2022/01/08 11:38:25;;;;;;;7.70;4.60;;;;;;;6.35;60.94;101086.78;119387;1185;21794;-68
2022/01/08 11:40:59;;;;;;;9.20;5.00;;;;;;;6.32;61.25;101082.89;119469;1182;22106;-55
2022/01/08 11:43:28;;;;;;;7.90;5.20;;;;;;;6.29;61.32;101085.46;119450;1182;21786;-70
2022/01/08 11:46:02;;;;;;;9.20;5.40;;;;;;;6.25;60.81;101081.21;119369;1183;21749;-68
2022/01/08 11:48:39;;;;;;;8.50;4.80;;;;;;;6.24;61.01;101082.06;119251;1184;21785;-68
2022/01/08 11:51:08;;;;;;;8.70;5.10;;;;;;;6.24;60.95;101075.10;119262;1185;21779;-56